createdAt,value
2023-05-19T00:01:29.582Z,9.05
2023-05-19T00:06:33.376Z,9.04
2023-05-19T00:11:38.522Z,9.03
2023-05-19T00:16:42.917Z,9.03
2023-05-19T00:21:45.817Z,9.01
2023-05-19T00:26:48.923Z,8.99
2023-05-19T00:31:51.985Z,8.99
2023-05-19T00:36:55.045Z,8.97
2023-05-19T00:41:58.053Z,8.97
2023-05-19T00:47:01.541Z,8.97
2023-05-19T00:52:06.817Z,8.97
2023-05-19T00:57:09.728Z,8.94
2023-05-19T01:02:13.973Z,8.91
2023-05-19T01:07:17.078Z,8.90
2023-05-19T01:12:20.094Z,8.87
2023-05-19T01:17:34.630Z,8.84
2023-05-19T01:23:02.352Z,8.82
2023-05-19T01:28:43.354Z,8.78
2023-05-19T01:33:47.782Z,8.77
2023-05-19T01:38:54.383Z,8.76
2023-05-19T01:43:58.590Z,8.78
2023-05-19T01:49:02.357Z,8.80
2023-05-19T01:54:05.356Z,8.83
2023-05-19T01:59:23.651Z,8.85
2023-05-19T02:04:40.821Z,8.85
2023-05-19T02:09:53.792Z,8.83
2023-05-19T02:15:21.683Z,8.80
2023-05-19T02:20:24.712Z,8.78
2023-05-19T02:25:27.798Z,8.75
2023-05-19T02:30:32.398Z,8.72
2023-05-19T02:35:35.579Z,8.68
2023-05-19T02:40:38.551Z,8.66
2023-05-19T02:45:41.462Z,8.66
2023-05-19T02:50:44.457Z,8.68
2023-05-19T02:55:47.471Z,8.73
2023-05-19T03:00:51.700Z,8.78
2023-05-19T03:05:54.916Z,8.83
2023-05-19T03:10:58.331Z,8.87
2023-05-19T03:16:02.332Z,8.90
2023-05-19T03:21:06.293Z,8.95
2023-05-19T03:26:09.311Z,9.02
2023-05-19T03:31:13.438Z,9.11
2023-05-19T03:36:16.441Z,9.22
2023-05-19T03:41:19.649Z,9.33
2023-05-19T03:46:22.652Z,9.48
2023-05-19T03:51:26.136Z,9.64
2023-05-19T03:56:29.137Z,9.79
2023-05-19T04:01:32.089Z,9.92
2023-05-19T04:06:36.651Z,10.02
2023-05-19T04:11:40.557Z,10.10
2023-05-19T04:16:44.307Z,10.18
2023-05-19T04:21:47.298Z,10.25
2023-05-19T04:26:50.404Z,10.37
2023-05-19T04:31:53.405Z,10.48
2023-05-19T04:36:56.423Z,10.58
2023-05-19T04:42:00.451Z,10.66
2023-05-19T04:47:03.633Z,10.74
2023-05-19T04:52:11.373Z,10.83
2023-05-19T04:57:14.621Z,10.94
2023-05-19T05:02:17.816Z,11.05
2023-05-19T05:07:24.173Z,11.22
2023-05-19T05:12:27.873Z,11.39
2023-05-19T05:17:32.353Z,11.57
2023-05-19T05:22:36.270Z,11.72
2023-05-19T05:27:39.372Z,11.88
2023-05-19T05:32:42.561Z,12.03
2023-05-19T05:37:46.042Z,12.23
2023-05-19T05:42:49.124Z,12.46
2023-05-19T05:47:52.606Z,12.69
2023-05-19T05:52:56.168Z,12.95
2023-05-19T05:58:02.140Z,13.27
2023-05-19T06:03:24.598Z,13.58
2023-05-19T06:08:28.119Z,13.90
2023-05-19T06:13:31.429Z,14.20
2023-05-19T06:18:34.849Z,14.43
2023-05-19T06:23:38.404Z,14.60
2023-05-19T06:28:41.478Z,14.78
2023-05-19T06:33:44.831Z,14.91
2023-05-19T06:38:48.205Z,14.96
2023-05-19T06:43:51.426Z,15.01
2023-05-19T06:48:54.632Z,15.05
2023-05-19T06:53:57.635Z,15.13
2023-05-19T06:59:00.957Z,15.18
2023-05-19T07:04:04.152Z,15.25
2023-05-19T07:09:07.576Z,15.52
2023-05-19T07:14:11.204Z,15.78
2023-05-19T07:19:14.239Z,15.92
2023-05-19T07:24:17.777Z,16.06
2023-05-19T07:29:20.933Z,16.09
2023-05-19T07:34:24.904Z,16.17
2023-05-19T07:39:30.012Z,16.20
2023-05-19T07:44:33.023Z,16.28
2023-05-19T07:49:36.085Z,16.39
2023-05-19T07:54:39.135Z,16.45
2023-05-19T07:59:42.452Z,16.73
2023-05-19T08:04:46.255Z,17.08
2023-05-19T08:09:49.284Z,17.46
2023-05-19T08:14:52.852Z,17.94
2023-05-19T08:19:55.911Z,18.32
2023-05-19T08:24:58.776Z,18.39
2023-05-19T08:30:01.760Z,17.97
2023-05-19T08:35:05.140Z,17.60
2023-05-19T08:40:12.068Z,17.30
2023-05-19T08:45:15.453Z,17.10
2023-05-19T08:50:25.661Z,17.07
2023-05-19T08:56:11.221Z,17.12
2023-05-19T09:01:18.172Z,17.39
2023-05-19T09:06:21.858Z,17.66
2023-05-19T09:11:24.970Z,18.08
2023-05-19T09:16:29.926Z,18.34
2023-05-19T09:21:33.947Z,18.38
2023-05-19T09:26:38.693Z,18.08
2023-05-19T09:31:56.368Z,17.81
2023-05-19T09:37:00.463Z,17.50
2023-05-19T09:42:04.953Z,17.48
2023-05-19T09:47:09.882Z,17.58
2023-05-19T09:52:16.767Z,17.71
2023-05-19T09:57:27.264Z,17.96
2023-05-19T10:02:31.748Z,18.36
2023-05-19T10:07:35.833Z,18.58
2023-05-19T10:12:39.739Z,18.48
2023-05-19T10:17:44.322Z,18.35
2023-05-19T10:22:48.128Z,18.08
2023-05-19T10:28:01.615Z,17.91
2023-05-19T10:33:10.658Z,17.81
2023-05-19T10:38:38.817Z,17.59
2023-05-19T10:43:51.753Z,17.56
2023-05-19T10:48:55.962Z,17.35
2023-05-19T10:54:03.037Z,17.10
2023-05-19T10:59:06.309Z,16.93
2023-05-19T11:04:15.164Z,16.69
2023-05-19T11:09:22.532Z,16.78
2023-05-19T11:14:32.858Z,16.84
2023-05-19T11:19:36.502Z,16.86
2023-05-19T11:24:44.845Z,16.99
2023-05-19T11:29:48.589Z,17.19
2023-05-19T11:34:52.773Z,17.45
2023-05-19T11:39:55.967Z,17.69
2023-05-19T11:44:59.075Z,17.86
2023-05-19T11:50:02.186Z,17.89
2023-05-19T11:55:06.852Z,17.78
2023-05-19T12:00:11.556Z,17.67
2023-05-19T12:05:26.139Z,17.61
2023-05-19T12:10:31.918Z,17.52
2023-05-19T12:15:35.982Z,17.55
2023-05-19T12:20:39.662Z,17.60
2023-05-19T12:25:42.623Z,17.58
2023-05-19T12:30:52.235Z,17.52
2023-05-19T12:35:55.748Z,17.42
2023-05-19T12:41:00.307Z,17.35
2023-05-19T12:46:13.635Z,17.33
2023-05-19T12:51:18.201Z,17.41
2023-05-19T12:56:22.833Z,17.46
2023-05-19T13:01:26.188Z,17.40
2023-05-19T13:06:29.369Z,17.25
2023-05-19T13:11:32.388Z,17.09
2023-05-19T13:16:35.408Z,16.84
2023-05-19T13:21:38.284Z,16.76
2023-05-19T13:26:42.010Z,16.98
2023-05-19T13:31:45.237Z,17.02
2023-05-19T13:36:49.207Z,16.73
2023-05-19T13:41:52.362Z,16.29
2023-05-19T13:46:55.445Z,15.81
2023-05-19T13:52:00.227Z,15.32
2023-05-19T13:57:03.330Z,14.91
2023-05-19T14:02:08.065Z,14.59
2023-05-19T14:07:11.189Z,14.33
2023-05-19T14:12:14.191Z,14.17
2023-05-19T14:17:17.092Z,14.18
2023-05-19T14:22:20.132Z,14.33
2023-05-19T14:27:23.016Z,14.61
2023-05-19T14:32:27.882Z,14.94
2023-05-19T14:37:32.621Z,15.25
2023-05-19T14:42:35.614Z,15.51
2023-05-19T14:47:38.542Z,15.79
2023-05-19T14:52:41.618Z,15.99
2023-05-19T14:57:44.663Z,16.02
2023-05-19T15:02:48.264Z,15.93
2023-05-19T15:07:51.554Z,15.64
2023-05-19T15:12:54.574Z,15.39
2023-05-19T15:17:57.673Z,15.25
2023-05-19T15:23:00.799Z,15.08
2023-05-19T15:28:04.003Z,15.05
2023-05-19T15:33:07.067Z,15.13
2023-05-19T15:38:10.115Z,15.24
2023-05-19T15:43:13.466Z,15.33
2023-05-19T15:48:16.665Z,15.37
2023-05-19T15:53:20.685Z,15.28
2023-05-19T15:58:23.787Z,15.14
2023-05-19T16:03:27.549Z,15.00
2023-05-19T16:08:31.343Z,14.87
2023-05-19T16:13:34.556Z,14.78
2023-05-19T16:18:37.806Z,14.67
2023-05-19T16:23:40.972Z,14.55
2023-05-19T16:28:44.260Z,14.45
2023-05-19T16:33:47.492Z,14.36
2023-05-19T16:38:50.497Z,14.29
2023-05-19T16:43:53.503Z,14.21
2023-05-19T16:48:56.818Z,14.15
2023-05-19T16:54:00.446Z,14.04
2023-05-19T16:59:03.448Z,13.93
2023-05-19T17:04:07.784Z,13.87
2023-05-19T17:09:10.786Z,13.79
2023-05-19T17:14:14.415Z,13.71
2023-05-19T17:19:17.439Z,13.62
2023-05-19T17:24:20.521Z,13.57
2023-05-19T17:29:23.636Z,13.52
2023-05-19T17:34:26.749Z,13.45
2023-05-19T17:39:29.745Z,13.39
2023-05-19T17:44:33.058Z,13.33
2023-05-19T17:49:36.198Z,13.30
2023-05-19T17:54:39.411Z,13.24
2023-05-19T17:59:42.818Z,13.18
2023-05-19T18:04:46.457Z,13.13
2023-05-19T18:09:51.678Z,13.07
2023-05-19T18:14:55.300Z,13.01
2023-05-19T18:19:59.025Z,12.98
2023-05-19T18:25:02.148Z,12.94
2023-05-19T18:30:06.522Z,12.91
2023-05-19T18:35:10.065Z,12.88
2023-05-19T18:40:13.314Z,12.84
2023-05-19T18:45:16.317Z,12.78
2023-05-19T18:50:19.624Z,12.72
2023-05-19T18:55:23.537Z,12.66
2023-05-19T19:00:28.290Z,12.60
2023-05-19T19:05:31.509Z,13.38
2023-05-19T19:10:37.293Z,15.69
2023-05-19T19:15:40.287Z,17.02
2023-05-19T19:20:43.293Z,16.95
2023-05-19T19:25:46.404Z,15.49
2023-05-19T19:30:49.799Z,14.59
2023-05-19T19:35:52.722Z,14.01
2023-05-19T19:40:55.743Z,13.59
2023-05-19T19:46:04.609Z,13.25
2023-05-19T19:51:07.794Z,12.98
2023-05-19T19:56:10.901Z,12.79
2023-05-19T20:01:13.905Z,12.64
2023-05-19T20:06:17.019Z,13.35
2023-05-19T20:11:23.113Z,15.62
2023-05-19T20:16:26.237Z,16.93
2023-05-19T20:21:29.309Z,17.21
2023-05-19T20:26:32.498Z,15.77
2023-05-19T20:31:35.633Z,14.70
2023-05-19T20:36:38.634Z,14.02
2023-05-19T20:41:41.644Z,13.53
2023-05-19T20:46:44.653Z,13.15
2023-05-19T20:51:47.860Z,13.63
2023-05-19T20:56:52.003Z,15.74
2023-05-19T21:01:55.001Z,16.96
2023-05-19T21:06:58.148Z,17.67
2023-05-19T21:12:01.361Z,17.35
2023-05-19T21:17:04.906Z,15.73
2023-05-19T21:22:07.950Z,14.68
2023-05-19T21:27:11.781Z,13.95
2023-05-19T21:32:14.882Z,13.42
2023-05-19T21:37:17.895Z,13.02
2023-05-19T21:42:20.895Z,13.59
2023-05-19T21:47:23.741Z,15.70
2023-05-19T21:52:26.704Z,16.86
2023-05-19T21:57:29.611Z,17.60
2023-05-19T22:02:32.538Z,17.44
2023-05-19T22:07:36.027Z,15.88
2023-05-19T22:12:39.039Z,14.82
2023-05-19T22:17:42.773Z,14.10
2023-05-19T22:22:45.870Z,13.55
2023-05-19T22:27:48.887Z,13.91
2023-05-19T22:32:51.809Z,15.88
2023-05-19T22:37:54.753Z,17.03
2023-05-19T22:42:57.796Z,17.04
2023-05-19T22:48:00.948Z,15.52
2023-05-19T22:53:03.906Z,14.46
2023-05-19T22:58:06.808Z,13.78
2023-05-19T23:03:09.758Z,13.29
2023-05-19T23:08:12.823Z,12.93
2023-05-19T23:13:15.829Z,13.49
2023-05-19T23:18:18.839Z,15.59
2023-05-19T23:23:21.848Z,16.76
2023-05-19T23:28:24.862Z,17.54
2023-05-19T23:33:27.860Z,16.97
2023-05-19T23:38:30.866Z,15.35
2023-05-19T23:43:33.886Z,14.37
2023-05-19T23:48:36.882Z,13.73
2023-05-19T23:53:39.888Z,13.25
2023-05-19T23:58:42.790Z,13.71
